createdAt,value
2023-08-06T02:28:07.036Z,21.30
2023-08-06T02:30:33.997Z,21.30
2023-08-06T02:33:01.017Z,21.30
2023-08-06T02:35:27.993Z,21.30
2023-08-06T02:37:54.897Z,21.20
2023-08-06T02:40:21.803Z,21.20
2023-08-06T02:42:48.706Z,21.20
2023-08-06T02:45:15.599Z,21.20
2023-08-06T02:47:42.566Z,21.20
2023-08-06T02:50:09.684Z,21.10
2023-08-06T02:52:36.668Z,21.10
2023-08-06T02:55:03.775Z,21.10
2023-08-06T02:57:30.851Z,21.20
2023-08-06T02:59:57.769Z,21.10
2023-08-06T03:02:24.663Z,21.20
2023-08-06T03:04:52.347Z,21.20
2023-08-06T03:07:19.352Z,21.10
2023-08-06T03:09:46.292Z,21.10
2023-08-06T03:12:13.359Z,21.20
2023-08-06T03:14:40.479Z,21.20
2023-08-06T03:17:07.553Z,21.20
2023-08-06T03:19:34.477Z,21.20
2023-08-06T03:22:01.342Z,21.10
2023-08-06T03:24:28.269Z,21.10
2023-08-06T03:26:55.181Z,21.10
2023-08-06T03:29:23.060Z,21.00
2023-08-06T03:31:50.224Z,21.00
2023-08-06T03:34:17.323Z,21.00
2023-08-06T03:36:44.237Z,21.00
2023-08-06T03:39:13.625Z,21.00
2023-08-06T03:41:40.772Z,21.00
2023-08-06T03:44:07.807Z,21.00
2023-08-06T03:46:35.378Z,21.00
2023-08-06T03:49:02.502Z,21.00
2023-08-06T03:51:29.485Z,21.00
2023-08-06T03:53:56.385Z,21.10
2023-08-06T03:56:23.421Z,21.10
2023-08-06T03:58:50.988Z,21.10
2023-08-06T04:01:17.945Z,21.20
2023-08-06T04:03:44.951Z,21.20
2023-08-06T04:06:11.915Z,21.30
2023-08-06T04:08:38.841Z,21.30
2023-08-06T04:11:05.730Z,21.30
2023-08-06T04:13:32.608Z,21.30
2023-08-06T04:16:03.435Z,21.30
2023-08-06T04:18:30.465Z,21.40
2023-08-06T04:20:58.570Z,21.40
2023-08-06T04:23:25.925Z,21.40
2023-08-06T04:25:52.806Z,21.50
2023-08-06T04:28:20.493Z,21.40
2023-08-06T04:30:47.596Z,21.40
2023-08-06T04:33:14.590Z,21.40
2023-08-06T04:35:41.512Z,21.30
2023-08-06T04:38:08.566Z,21.40
2023-08-06T04:40:36.226Z,21.40
2023-08-06T04:43:03.305Z,21.40
2023-08-06T04:45:30.276Z,21.40
2023-08-06T04:47:57.207Z,21.40
2023-08-06T04:50:24.168Z,21.40
2023-08-06T04:52:51.074Z,21.40
2023-08-06T04:55:18.022Z,21.40
2023-08-06T04:57:45.033Z,21.40
2023-08-06T05:00:12.068Z,21.40
2023-08-06T05:02:39.994Z,21.50
2023-08-06T05:05:07.033Z,21.50
2023-08-06T05:07:34.117Z,21.60
2023-08-06T05:10:01.079Z,21.60
2023-08-06T05:12:27.996Z,21.60
2023-08-06T05:14:55.022Z,21.70
2023-08-06T05:17:24.058Z,21.70
2023-08-06T05:19:51.101Z,21.70
2023-08-06T05:22:18.110Z,21.80
2023-08-06T05:24:45.016Z,21.80
2023-08-06T05:27:11.997Z,21.80
2023-08-06T05:29:38.859Z,21.80
2023-08-06T05:32:05.924Z,21.90
2023-08-06T05:34:32.911Z,21.90
2023-08-06T05:36:59.779Z,21.90
2023-08-06T05:39:26.725Z,22.00
2023-08-06T05:41:54.031Z,22.00
2023-08-06T05:44:21.284Z,22.00
2023-08-06T05:46:48.214Z,22.10
2023-08-06T05:49:15.201Z,22.20
2023-08-06T05:51:42.539Z,22.20
2023-08-06T05:54:09.534Z,22.30
2023-08-06T05:56:36.536Z,22.20
2023-08-06T05:59:03.445Z,22.20
2023-08-06T06:01:30.354Z,22.20
2023-08-06T06:03:57.472Z,22.20
2023-08-06T06:06:24.369Z,22.20
2023-08-06T06:08:51.410Z,22.20
2023-08-06T06:11:20.703Z,22.20
2023-08-06T06:13:47.558Z,22.20
2023-08-06T06:16:14.444Z,22.20
2023-08-06T06:18:41.355Z,22.20
2023-08-06T06:21:09.873Z,22.20
2023-08-06T06:23:36.757Z,22.20
2023-08-06T06:26:03.769Z,22.20
2023-08-06T06:28:30.764Z,22.20
2023-08-06T06:31:04.581Z,22.40
2023-08-06T06:33:31.593Z,22.50
2023-08-06T06:35:58.541Z,22.60
2023-08-06T06:38:25.491Z,22.80
2023-08-06T06:40:58.622Z,22.90
2023-08-06T06:43:25.814Z,23.00
2023-08-06T06:46:02.023Z,23.00
2023-08-06T06:48:33.317Z,23.10
2023-08-06T06:51:00.432Z,23.10
2023-08-06T06:53:30.412Z,23.10
2023-08-06T06:56:06.466Z,23.10
2023-08-06T06:58:33.607Z,23.20
2023-08-06T07:01:00.623Z,23.20
2023-08-06T07:03:27.697Z,23.40
2023-08-06T07:05:57.918Z,23.50
2023-08-06T07:08:24.931Z,23.70
2023-08-06T07:10:51.830Z,23.80
2023-08-06T07:13:18.716Z,23.90
2023-08-06T07:15:45.639Z,23.90
2023-08-06T07:18:12.532Z,23.90
2023-08-06T07:20:39.467Z,23.90
2023-08-06T07:23:08.642Z,23.80
2023-08-06T07:25:35.846Z,23.80
2023-08-06T07:28:03.568Z,23.80
2023-08-06T07:30:30.518Z,23.90
2023-08-06T07:32:57.539Z,24.00
2023-08-06T07:35:24.512Z,24.20
2023-08-06T07:37:51.478Z,24.40
2023-08-06T07:40:18.470Z,24.60
2023-08-06T07:42:45.433Z,24.80
2023-08-06T07:45:12.527Z,25.00
2023-08-06T07:47:39.463Z,25.20
2023-08-06T07:50:06.555Z,25.30
2023-08-06T07:52:33.473Z,25.40
2023-08-06T07:55:03.090Z,25.30
2023-08-06T07:57:30.168Z,25.20
2023-08-06T07:59:57.155Z,25.10
2023-08-06T08:02:24.143Z,25.10
2023-08-06T08:04:51.295Z,25.10
2023-08-06T08:07:18.289Z,25.20
2023-08-06T08:09:47.473Z,25.30
2023-08-06T08:12:14.394Z,25.30
2023-08-06T08:14:41.372Z,25.30
2023-08-06T08:17:08.333Z,25.30
2023-08-06T08:19:35.235Z,25.30
2023-08-06T08:22:02.210Z,25.20
2023-08-06T08:24:29.113Z,25.20
2023-08-06T08:26:56.151Z,25.20
2023-08-06T08:29:23.184Z,25.10
2023-08-06T08:31:53.215Z,25.20
2023-08-06T08:34:20.440Z,25.20
2023-08-06T08:36:48.590Z,25.30
2023-08-06T08:39:15.945Z,25.40
2023-08-06T08:41:42.837Z,25.50
2023-08-06T08:44:13.215Z,25.70
2023-08-06T08:46:44.713Z,25.80
2023-08-06T08:49:11.914Z,26.00
2023-08-06T08:51:39.121Z,26.20
2023-08-06T08:54:06.058Z,26.40
2023-08-06T08:56:33.117Z,26.60
2023-08-06T08:59:00.636Z,26.80
2023-08-06T09:01:27.741Z,26.90
2023-08-06T09:03:55.331Z,26.90
2023-08-06T09:06:22.566Z,26.90
2023-08-06T09:08:56.210Z,26.80
2023-08-06T09:11:23.115Z,26.80
2023-08-06T09:13:50.198Z,26.90
2023-08-06T09:16:17.208Z,27.00
2023-08-06T09:18:44.256Z,27.20
2023-08-06T09:21:14.817Z,27.30
2023-08-06T09:23:41.709Z,27.50
2023-08-06T09:26:08.732Z,27.50
2023-08-06T09:28:38.469Z,27.50
2023-08-06T09:31:05.455Z,27.60
2023-08-06T09:33:32.405Z,27.70
2023-08-06T09:35:59.434Z,27.90
2023-08-06T09:38:26.526Z,28.20
2023-08-06T09:40:53.429Z,28.40
2023-08-06T09:43:20.683Z,28.60
2023-08-06T09:45:49.327Z,28.90
2023-08-06T09:48:16.336Z,28.90
2023-08-06T09:50:43.259Z,28.90
2023-08-06T09:53:12.889Z,28.60
2023-08-06T09:55:39.828Z,28.30
2023-08-06T09:58:08.072Z,28.00
2023-08-06T10:00:39.431Z,27.70
2023-08-06T10:03:07.222Z,27.60
2023-08-06T10:05:35.300Z,27.50
2023-08-06T10:08:02.557Z,27.60
2023-08-06T10:10:29.517Z,27.80
2023-08-06T10:12:57.214Z,28.00
2023-08-06T10:15:26.109Z,28.20
2023-08-06T10:17:53.619Z,28.30
2023-08-06T10:20:22.443Z,28.50
2023-08-06T10:23:09.663Z,28.50
2023-08-06T10:25:37.052Z,28.50
2023-08-06T10:28:16.612Z,28.50
2023-08-06T10:30:45.678Z,28.40
2023-08-06T10:33:12.733Z,28.40
2023-08-06T10:35:46.277Z,28.40
2023-08-06T10:38:14.680Z,28.50
2023-08-06T10:40:42.250Z,28.50
2023-08-06T10:43:10.648Z,28.70
2023-08-06T10:45:38.165Z,28.90
2023-08-06T10:48:07.136Z,29.20
2023-08-06T10:50:37.356Z,29.40
2023-08-06T10:53:26.579Z,29.60
2023-08-06T10:55:56.269Z,29.70
2023-08-06T10:58:24.131Z,29.70
2023-08-06T11:00:51.124Z,29.60
2023-08-06T11:03:18.582Z,29.50
2023-08-06T11:05:51.718Z,29.40
2023-08-06T11:08:26.360Z,29.00
2023-08-06T11:11:04.306Z,28.80
2023-08-06T11:13:32.534Z,28.40
2023-08-06T11:16:02.004Z,28.10
2023-08-06T11:18:29.459Z,27.90
2023-08-06T11:20:56.450Z,27.50
2023-08-06T11:23:23.360Z,27.20
2023-08-06T11:25:50.374Z,27.00
2023-08-06T11:28:18.077Z,26.80
2023-08-06T11:30:45.088Z,26.60
2023-08-06T11:33:12.099Z,26.50
2023-08-06T11:35:39.388Z,26.30
2023-08-06T11:38:16.044Z,26.20
2023-08-06T11:41:07.310Z,26.10
2023-08-06T11:43:42.796Z,26.00
2023-08-06T11:46:12.079Z,25.90
2023-08-06T11:49:00.958Z,25.80
2023-08-06T11:51:28.156Z,25.70
2023-08-06T11:53:58.568Z,25.60
2023-08-06T11:56:25.927Z,25.50
2023-08-06T11:58:55.521Z,25.40
2023-08-06T12:01:22.732Z,25.30
2023-08-06T12:03:49.915Z,25.30
2023-08-06T12:06:16.994Z,25.10
2023-08-06T12:08:44.009Z,25.00
2023-08-06T12:11:10.936Z,24.90
2023-08-06T12:13:37.886Z,24.80
2023-08-06T12:16:04.830Z,24.80
2023-08-06T12:18:31.743Z,24.70
2023-08-06T12:20:59.634Z,24.70
2023-08-06T12:23:26.595Z,24.60
2023-08-06T12:25:53.763Z,24.50
2023-08-06T12:28:23.634Z,24.20
2023-08-06T12:30:52.003Z,24.10
2023-08-06T12:33:19.968Z,24.00
2023-08-06T12:35:46.927Z,24.00
2023-08-06T12:38:14.955Z,24.10
2023-08-06T12:40:43.891Z,24.00
2023-08-06T12:43:16.633Z,24.00
2023-08-06T12:45:43.834Z,23.90
2023-08-06T12:48:17.860Z,23.70
2023-08-06T12:50:45.034Z,23.60
2023-08-06T12:53:14.461Z,23.50
2023-08-06T12:55:42.011Z,23.40
2023-08-06T12:58:09.082Z,23.30
2023-08-06T13:00:36.022Z,23.30
2023-08-06T13:03:02.997Z,23.30
2023-08-06T13:05:30.028Z,23.30
2023-08-06T13:07:56.996Z,23.30
2023-08-06T13:10:25.668Z,23.30
2023-08-06T13:12:52.657Z,23.40
2023-08-06T13:15:22.148Z,23.40
2023-08-06T13:17:49.293Z,23.50
2023-08-06T13:20:18.572Z,23.70
2023-08-06T13:22:47.798Z,23.90
2023-08-06T13:25:17.122Z,23.90
2023-08-06T13:27:45.494Z,23.70
2023-08-06T13:30:12.760Z,23.60
2023-08-06T13:32:40.847Z,23.50
2023-08-06T13:35:08.144Z,23.40
2023-08-06T13:37:35.099Z,23.30
2023-08-06T13:40:02.072Z,23.20
2023-08-06T13:42:30.029Z,23.20
2023-08-06T13:45:03.762Z,23.10
2023-08-06T13:47:33.247Z,23.00
2023-08-06T13:52:44.407Z,23.00
2023-08-06T13:55:11.421Z,23.00
2023-08-06T13:57:38.627Z,22.90
2023-08-06T14:00:06.824Z,22.80
2023-08-06T14:02:33.856Z,22.80
2023-08-06T14:05:01.170Z,22.80
2023-08-06T14:07:28.158Z,22.80
2023-08-06T14:09:55.207Z,22.70
2023-08-06T14:12:22.243Z,22.80
2023-08-06T14:14:49.206Z,22.70
2023-08-06T14:17:17.060Z,22.70
2023-08-06T14:19:44.053Z,22.80
2023-08-06T14:22:10.995Z,22.80
2023-08-06T14:24:37.972Z,22.70
2023-08-06T14:27:07.268Z,22.70
2023-08-06T14:29:34.429Z,22.90
2023-08-06T14:32:01.410Z,23.00
2023-08-06T14:34:28.951Z,23.00
2023-08-06T14:36:56.225Z,23.20
2023-08-06T14:39:23.755Z,23.10
2023-08-06T14:41:50.725Z,23.00
2023-08-06T14:44:17.656Z,22.90
2023-08-06T14:46:44.983Z,23.00
2023-08-06T14:49:11.926Z,23.00
2023-08-06T14:51:40.144Z,23.00
2023-08-06T14:54:07.160Z,23.00
2023-08-06T14:56:34.070Z,22.90
2023-08-06T14:59:01.048Z,22.80
2023-08-06T15:01:28.096Z,22.80
2023-08-06T15:03:55.400Z,22.80
2023-08-06T15:06:22.348Z,22.70
2023-08-06T15:08:49.489Z,22.70
2023-08-06T15:11:16.601Z,22.70
2023-08-06T15:13:43.503Z,22.40
2023-08-06T15:16:10.514Z,22.20
2023-08-06T15:18:39.777Z,22.20
2023-08-06T15:21:06.745Z,22.40
2023-08-06T15:23:33.666Z,22.60
2023-08-06T15:26:00.588Z,22.80
2023-08-06T15:28:27.523Z,22.90
2023-08-06T15:30:55.020Z,23.10
2023-08-06T15:33:21.997Z,23.10
2023-08-06T15:35:49.076Z,23.20
2023-08-06T15:38:16.024Z,23.20
2023-08-06T15:40:43.035Z,23.20
2023-08-06T15:43:09.950Z,23.10
2023-08-06T15:45:37.003Z,23.00
2023-08-06T15:48:04.040Z,22.80
2023-08-06T15:50:31.100Z,22.60
2023-08-06T15:52:58.063Z,22.50
2023-08-06T15:55:25.525Z,22.30
2023-08-06T15:57:52.690Z,22.10
2023-08-06T16:00:19.657Z,22.10
2023-08-06T16:02:47.302Z,22.20
2023-08-06T16:05:14.610Z,22.20
2023-08-06T16:07:41.626Z,22.20
2023-08-06T16:10:08.749Z,22.20
2023-08-06T16:12:35.765Z,22.20
2023-08-06T16:15:03.297Z,22.30
2023-08-06T16:17:30.369Z,22.20
2023-08-06T16:19:57.673Z,22.10
2023-08-06T16:22:24.558Z,22.10
2023-08-06T16:24:51.502Z,22.00
2023-08-06T16:27:18.671Z,22.00
2023-08-06T16:29:47.187Z,22.00
2023-08-06T16:32:14.244Z,21.90
2023-08-06T16:34:41.195Z,21.90
2023-08-06T16:37:09.134Z,21.90
2023-08-06T16:39:36.110Z,21.90
2023-08-06T16:42:03.049Z,21.90
2023-08-06T16:44:32.741Z,22.00
2023-08-06T16:47:00.475Z,22.00
2023-08-06T16:49:27.428Z,22.00
2023-08-06T16:51:54.456Z,22.00
2023-08-06T16:54:21.360Z,22.10
2023-08-06T16:56:48.391Z,22.00
2023-08-06T16:59:16.512Z,21.90
2023-08-06T17:01:43.516Z,21.90
2023-08-06T17:04:10.405Z,21.90
2023-08-06T17:06:37.461Z,22.00
2023-08-06T17:09:07.475Z,22.00
2023-08-06T17:11:34.481Z,22.00
2023-08-06T17:14:01.774Z,22.00
2023-08-06T17:16:28.813Z,21.90
2023-08-06T17:18:55.737Z,21.90
2023-08-06T17:21:22.678Z,21.90
2023-08-06T17:23:49.721Z,21.90
2023-08-06T17:26:16.784Z,21.90
2023-08-06T17:28:43.746Z,21.90
2023-08-06T17:31:12.113Z,21.90
2023-08-06T17:33:39.166Z,21.90
2023-08-06T17:36:06.157Z,21.90
2023-08-06T17:38:33.152Z,21.90
2023-08-06T17:41:01.290Z,21.90
2023-08-06T17:43:28.356Z,21.90
2023-08-06T17:45:55.453Z,21.90
2023-08-06T17:48:22.420Z,21.80
2023-08-06T17:50:49.422Z,21.80
2023-08-06T17:53:16.369Z,21.80
2023-08-06T17:55:43.320Z,21.80
2023-08-06T17:58:10.495Z,21.80
2023-08-06T18:00:37.766Z,21.70
2023-08-06T18:03:04.860Z,21.70
2023-08-06T18:05:34.281Z,21.60
2023-08-06T18:08:01.374Z,21.50
2023-08-06T18:10:28.855Z,21.50
2023-08-06T18:12:55.954Z,21.40
2023-08-06T18:15:23.015Z,21.40
2023-08-06T18:17:50.053Z,21.40
2023-08-06T18:20:17.424Z,21.30
2023-08-06T18:22:44.440Z,21.30
2023-08-06T18:25:11.550Z,21.20
2023-08-06T18:27:38.600Z,21.20
2023-08-06T18:30:05.946Z,21.10
2023-08-06T18:32:33.025Z,21.10
2023-08-06T18:35:00.115Z,21.10
2023-08-06T18:37:28.695Z,21.00
2023-08-06T18:40:03.373Z,21.00
2023-08-06T18:42:30.480Z,21.00
2023-08-06T18:44:57.539Z,20.90
2023-08-06T18:47:25.702Z,20.90
2023-08-06T18:49:52.805Z,20.90
2023-08-06T18:52:19.973Z,20.90
2023-08-06T18:54:46.928Z,20.80
2023-08-06T18:57:13.933Z,20.80
2023-08-06T18:59:41.020Z,20.70
2023-08-06T19:02:09.028Z,20.70
2023-08-06T19:04:36.278Z,20.70
2023-08-06T19:07:03.456Z,20.60
2023-08-06T19:09:31.136Z,20.60
2023-08-06T19:11:58.379Z,20.60
2023-08-06T19:14:27.045Z,20.60
2023-08-06T19:16:54.218Z,20.50
2023-08-06T19:19:21.598Z,20.50
2023-08-06T19:21:49.807Z,20.50
2023-08-06T19:24:17.071Z,20.40
2023-08-06T19:26:44.093Z,20.40
2023-08-06T19:29:11.031Z,20.40
2023-08-06T19:31:38.312Z,20.40
2023-08-06T19:34:05.758Z,20.40
2023-08-06T19:36:32.787Z,20.40
2023-08-06T19:38:59.849Z,20.30
2023-08-06T19:41:26.991Z,20.30
2023-08-06T19:43:54.081Z,20.30
2023-08-06T19:46:22.120Z,20.30
2023-08-06T19:48:49.106Z,20.20
2023-08-06T19:51:16.361Z,20.20
2023-08-06T19:53:44.033Z,20.20
2023-08-06T19:56:11.210Z,20.20
2023-08-06T19:58:38.180Z,20.10
2023-08-06T20:01:07.347Z,20.00
2023-08-06T20:03:39.140Z,20.00
2023-08-06T20:06:06.232Z,19.90
2023-08-06T20:08:33.223Z,19.90
2023-08-06T20:11:01.117Z,19.90
2023-08-06T20:13:28.252Z,19.80
2023-08-06T20:15:55.521Z,19.70
2023-08-06T20:18:27.065Z,19.70
2023-08-06T20:20:54.612Z,19.70
2023-08-06T20:23:21.619Z,19.60
2023-08-06T20:25:50.040Z,19.60
2023-08-06T20:28:17.098Z,19.50
2023-08-06T20:30:44.244Z,19.50
2023-08-06T20:33:11.482Z,19.50
2023-08-06T20:35:39.362Z,19.50
2023-08-06T20:38:06.304Z,19.50
2023-08-06T20:40:33.327Z,19.50
2023-08-06T20:43:00.312Z,19.50
2023-08-06T20:45:27.283Z,19.50
2023-08-06T20:47:54.241Z,19.50
2023-08-06T20:50:21.208Z,19.50
2023-08-06T20:52:48.842Z,19.50
2023-08-06T20:55:15.919Z,19.50
2023-08-06T20:57:42.899Z,19.50
2023-08-06T21:00:11.478Z,19.50
2023-08-06T21:02:38.474Z,19.50
2023-08-06T21:05:05.706Z,19.50
2023-08-06T21:07:32.685Z,19.50
2023-08-06T21:09:59.707Z,19.40
2023-08-06T21:12:28.961Z,19.40
2023-08-06T21:14:55.993Z,19.40
2023-08-06T21:17:23.148Z,19.30
2023-08-06T21:19:50.091Z,19.30
2023-08-06T21:22:17.145Z,19.30
2023-08-06T21:24:44.218Z,19.30
2023-08-06T21:27:11.379Z,19.30
2023-08-06T21:29:38.357Z,19.30
2023-08-06T21:32:07.060Z,19.30
2023-08-06T21:34:35.230Z,19.20
2023-08-06T21:37:02.357Z,19.20
2023-08-06T21:39:29.928Z,19.10
2023-08-06T21:41:57.182Z,19.00
2023-08-06T21:44:24.326Z,19.00
2023-08-06T21:46:51.671Z,19.00
2023-08-06T21:49:20.466Z,19.10
2023-08-06T21:51:48.434Z,19.10
2023-08-06T21:54:17.741Z,19.00
2023-08-06T21:56:44.986Z,19.00
2023-08-06T21:59:12.031Z,19.00
2023-08-06T22:01:39.265Z,19.10
2023-08-06T22:04:06.632Z,19.10
2023-08-06T22:06:33.726Z,19.10
2023-08-06T22:09:00.974Z,19.10
2023-08-06T22:11:28.029Z,19.00
2023-08-06T22:13:55.239Z,19.00
2023-08-06T22:16:22.507Z,19.00
2023-08-06T22:18:49.698Z,19.00
2023-08-06T22:21:16.770Z,19.00
2023-08-06T22:23:45.442Z,19.00
2023-08-06T22:26:12.455Z,19.00
2023-08-06T22:28:51.695Z,18.90
2023-08-06T22:31:27.562Z,18.80
2023-08-06T22:33:54.801Z,18.80
2023-08-06T22:36:21.938Z,18.70
2023-08-06T22:38:48.852Z,18.60
2023-08-06T22:41:15.731Z,18.60
2023-08-06T22:43:42.690Z,18.60
2023-08-06T22:46:09.947Z,18.60
2023-08-06T22:48:36.946Z,18.70
2023-08-06T22:51:03.892Z,18.70
2023-08-06T22:53:30.875Z,18.70
2023-08-06T22:56:08.498Z,18.70
2023-08-06T22:58:36.119Z,18.70
2023-08-06T23:01:03.353Z,18.70
2023-08-06T23:03:30.523Z,18.70
2023-08-06T23:05:57.704Z,18.80
2023-08-06T23:08:24.757Z,18.80
2023-08-06T23:10:51.648Z,18.80
2023-08-06T23:13:18.524Z,18.80
2023-08-06T23:15:45.486Z,18.80
2023-08-06T23:18:12.469Z,18.90
2023-08-06T23:20:39.375Z,18.90
2023-08-06T23:23:06.294Z,18.90
2023-08-06T23:25:37.121Z,18.90
2023-08-06T23:28:04.225Z,18.90
2023-08-06T23:30:31.173Z,18.90
2023-08-06T23:32:58.142Z,18.90
2023-08-06T23:35:25.292Z,18.80
2023-08-06T23:37:52.188Z,18.80
2023-08-06T23:40:21.664Z,18.80
2023-08-06T23:42:48.899Z,18.80
2023-08-06T23:45:16.087Z,18.80
2023-08-06T23:47:44.282Z,18.80
2023-08-06T23:50:11.486Z,18.80
2023-08-06T23:52:38.387Z,18.80
2023-08-06T23:55:05.429Z,18.70
2023-08-06T23:57:32.815Z,18.60
